sensor_id;sensor_type;location;lat;lon;timestamp;P1;durP1;ratioP1;P2;durP2;ratioP2
39612;SDS011;25303;48.896;13.342;2022-08-01T00:01:44;1.83;;;1.20;;
39612;SDS011;25303;48.896;13.342;2022-08-01T00:04:27;2.03;;;1.13;;
39612;SDS011;25303;48.896;13.342;2022-08-01T00:07:10;1.88;;;1.10;;
39612;SDS011;25303;48.896;13.342;2022-08-01T00:09:53;1.67;;;1.17;;
39612;SDS011;25303;48.896;13.342;2022-08-01T00:12:36;1.50;;;1.00;;
39612;SDS011;25303;48.896;13.342;2022-08-01T00:15:21;1.27;;;0.95;;
39612;SDS011;25303;48.896;13.342;2022-08-01T00:18:04;1.38;;;1.00;;
39612;SDS011;25303;48.896;13.342;2022-08-01T00:20:47;1.65;;;1.10;;
39612;SDS011;25303;48.896;13.342;2022-08-01T00:23:30;0.95;;;0.90;;
39612;SDS011;25303;48.896;13.342;2022-08-01T00:26:14;1.98;;;1.10;;
39612;SDS011;25303;48.896;13.342;2022-08-01T00:28:57;1.70;;;1.00;;
39612;SDS011;25303;48.896;13.342;2022-08-01T00:31:41;1.95;;;1.20;;
39612;SDS011;25303;48.896;13.342;2022-08-01T00:34:24;1.40;;;0.93;;
39612;SDS011;25303;48.896;13.342;2022-08-01T00:37:08;2.88;;;1.10;;
39612;SDS011;25303;48.896;13.342;2022-08-01T00:39:56;1.35;;;0.90;;
39612;SDS011;25303;48.896;13.342;2022-08-01T00:42:39;1.90;;;0.93;;
39612;SDS011;25303;48.896;13.342;2022-08-01T00:48:09;1.00;;;0.82;;
39612;SDS011;25303;48.896;13.342;2022-08-01T00:53:35;1.15;;;0.77;;
39612;SDS011;25303;48.896;13.342;2022-08-01T00:56:33;2.05;;;0.90;;
39612;SDS011;25303;48.896;13.342;2022-08-01T00:59:16;1.20;;;0.85;;
39612;SDS011;25303;48.896;13.342;2022-08-01T01:02:01;1.10;;;0.90;;
39612;SDS011;25303;48.896;13.342;2022-08-01T01:04:56;1.27;;;0.90;;
39612;SDS011;25303;48.896;13.342;2022-08-01T01:07:40;1.65;;;1.05;;
39612;SDS011;25303;48.896;13.342;2022-08-01T01:10:31;1.75;;;1.10;;
39612;SDS011;25303;48.896;13.342;2022-08-01T01:13:20;1.35;;;1.00;;
39612;SDS011;25303;48.896;13.342;2022-08-01T01:16:12;1.23;;;0.90;;
39612;SDS011;25303;48.896;13.342;2022-08-01T01:19:00;1.55;;;1.00;;
39612;SDS011;25303;48.896;13.342;2022-08-01T01:21:50;2.05;;;1.10;;
39612;SDS011;25303;48.896;13.342;2022-08-01T01:24:58;1.55;;;1.10;;
39612;SDS011;25303;48.896;13.342;2022-08-01T01:27:51;1.10;;;0.90;;
39612;SDS011;25303;48.896;13.342;2022-08-01T01:30:46;1.60;;;0.95;;
39612;SDS011;25303;48.896;13.342;2022-08-01T01:33:34;1.20;;;0.98;;
39612;SDS011;25303;48.896;13.342;2022-08-01T01:36:28;1.30;;;1.00;;
39612;SDS011;25303;48.896;13.342;2022-08-01T01:39:13;1.30;;;0.90;;
39612;SDS011;25303;48.896;13.342;2022-08-01T01:41:57;2.38;;;0.93;;
39612;SDS011;25303;48.896;13.342;2022-08-01T01:44:42;1.60;;;0.80;;
39612;SDS011;25303;48.896;13.342;2022-08-01T01:47:28;2.70;;;1.00;;
39612;SDS011;25303;48.896;13.342;2022-08-01T01:50:13;1.05;;;0.80;;
39612;SDS011;25303;48.896;13.342;2022-08-01T01:52:57;2.17;;;1.20;;
39612;SDS011;25303;48.896;13.342;2022-08-01T01:55:43;1.42;;;1.00;;
39612;SDS011;25303;48.896;13.342;2022-08-01T01:58:31;1.40;;;0.88;;
39612;SDS011;25303;48.896;13.342;2022-08-01T02:01:15;1.30;;;1.00;;
39612;SDS011;25303;48.896;13.342;2022-08-01T02:04:21;1.40;;;1.00;;
39612;SDS011;25303;48.896;13.342;2022-08-01T02:07:06;2.35;;;0.98;;
39612;SDS011;25303;48.896;13.342;2022-08-01T02:09:51;1.17;;;0.90;;
39612;SDS011;25303;48.896;13.342;2022-08-01T02:12:37;2.30;;;0.95;;
39612;SDS011;25303;48.896;13.342;2022-08-01T02:15:24;1.50;;;1.05;;
39612;SDS011;25303;48.896;13.342;2022-08-01T02:18:08;1.38;;;0.80;;
39612;SDS011;25303;48.896;13.342;2022-08-01T02:20:55;2.40;;;0.90;;
39612;SDS011;25303;48.896;13.342;2022-08-01T02:23:41;1.75;;;0.80;;
39612;SDS011;25303;48.896;13.342;2022-08-01T02:26:25;1.40;;;0.85;;
39612;SDS011;25303;48.896;13.342;2022-08-01T02:29:10;4.05;;;0.88;;
39612;SDS011;25303;48.896;13.342;2022-08-01T02:31:57;1.20;;;0.98;;
39612;SDS011;25303;48.896;13.342;2022-08-01T02:34:42;1.55;;;1.00;;
39612;SDS011;25303;48.896;13.342;2022-08-01T02:37:31;1.80;;;0.90;;
39612;SDS011;25303;48.896;13.342;2022-08-01T02:40:17;2.10;;;1.00;;
39612;SDS011;25303;48.896;13.342;2022-08-01T02:43:02;1.87;;;1.03;;
39612;SDS011;25303;48.896;13.342;2022-08-01T02:45:47;3.60;;;1.00;;
39612;SDS011;25303;48.896;13.342;2022-08-01T02:48:35;1.38;;;0.90;;
39612;SDS011;25303;48.896;13.342;2022-08-01T02:51:21;2.38;;;1.10;;
39612;SDS011;25303;48.896;13.342;2022-08-01T02:54:08;1.25;;;1.08;;
39612;SDS011;25303;48.896;13.342;2022-08-01T02:56:53;1.23;;;0.90;;
39612;SDS011;25303;48.896;13.342;2022-08-01T02:59:39;1.77;;;1.00;;
39612;SDS011;25303;48.896;13.342;2022-08-01T03:02:26;1.38;;;0.73;;
39612;SDS011;25303;48.896;13.342;2022-08-01T03:05:11;2.17;;;0.90;;
39612;SDS011;25303;48.896;13.342;2022-08-01T03:07:55;3.97;;;0.90;;
39612;SDS011;25303;48.896;13.342;2022-08-01T03:10:45;3.25;;;1.10;;
39612;SDS011;25303;48.896;13.342;2022-08-01T03:13:29;1.85;;;0.80;;
39612;SDS011;25303;48.896;13.342;2022-08-01T03:16:15;1.75;;;0.90;;
39612;SDS011;25303;48.896;13.342;2022-08-01T03:19:00;1.60;;;1.30;;
39612;SDS011;25303;48.896;13.342;2022-08-01T03:21:44;1.23;;;0.90;;
39612;SDS011;25303;48.896;13.342;2022-08-01T03:24:30;2.10;;;1.00;;
39612;SDS011;25303;48.896;13.342;2022-08-01T03:27:16;2.65;;;0.88;;
39612;SDS011;25303;48.896;13.342;2022-08-01T03:30:00;1.25;;;1.13;;
39612;SDS011;25303;48.896;13.342;2022-08-01T03:32:46;4.70;;;1.00;;
39612;SDS011;25303;48.896;13.342;2022-08-01T03:35:29;1.80;;;1.10;;
39612;SDS011;25303;48.896;13.342;2022-08-01T03:38:25;2.67;;;1.05;;
39612;SDS011;25303;48.896;13.342;2022-08-01T03:41:13;1.38;;;1.00;;
39612;SDS011;25303;48.896;13.342;2022-08-01T03:44:05;1.80;;;0.90;;
39612;SDS011;25303;48.896;13.342;2022-08-01T03:46:54;1.50;;;1.00;;
39612;SDS011;25303;48.896;13.342;2022-08-01T03:49:41;1.70;;;1.20;;
39612;SDS011;25303;48.896;13.342;2022-08-01T03:52:27;1.75;;;1.15;;
39612;SDS011;25303;48.896;13.342;2022-08-01T03:55:11;2.33;;;1.33;;
39612;SDS011;25303;48.896;13.342;2022-08-01T03:57:58;1.33;;;1.10;;
39612;SDS011;25303;48.896;13.342;2022-08-01T04:00:48;1.88;;;1.15;;
39612;SDS011;25303;48.896;13.342;2022-08-01T04:03:32;1.85;;;1.10;;
39612;SDS011;25303;48.896;13.342;2022-08-01T04:06:22;1.27;;;1.10;;
39612;SDS011;25303;48.896;13.342;2022-08-01T04:09:06;2.08;;;1.45;;
39612;SDS011;25303;48.896;13.342;2022-08-01T04:11:54;2.35;;;1.10;;
39612;SDS011;25303;48.896;13.342;2022-08-01T04:14:37;1.73;;;1.35;;
39612;SDS011;25303;48.896;13.342;2022-08-01T04:17:21;1.58;;;1.20;;
39612;SDS011;25303;48.896;13.342;2022-08-01T04:20:04;3.95;;;1.25;;
39612;SDS011;25303;48.896;13.342;2022-08-01T04:22:48;1.45;;;1.00;;
39612;SDS011;25303;48.896;13.342;2022-08-01T04:25:32;2.67;;;1.00;;
39612;SDS011;25303;48.896;13.342;2022-08-01T04:28:17;2.08;;;1.20;;
39612;SDS011;25303;48.896;13.342;2022-08-01T04:31:01;1.90;;;1.30;;
39612;SDS011;25303;48.896;13.342;2022-08-01T04:33:49;1.20;;;0.90;;
39612;SDS011;25303;48.896;13.342;2022-08-01T04:36:35;1.42;;;0.93;;
39612;SDS011;25303;48.896;13.342;2022-08-01T04:39:23;1.25;;;1.13;;
39612;SDS011;25303;48.896;13.342;2022-08-01T04:42:09;2.63;;;1.10;;
39612;SDS011;25303;48.896;13.342;2022-08-01T04:47:37;1.40;;;1.02;;
39612;SDS011;25303;48.896;13.342;2022-08-01T04:50:22;2.20;;;1.03;;
39612;SDS011;25303;48.896;13.342;2022-08-01T04:55:54;1.73;;;1.15;;
39612;SDS011;25303;48.896;13.342;2022-08-01T04:58:38;3.20;;;1.15;;
39612;SDS011;25303;48.896;13.342;2022-08-01T05:01:22;1.38;;;1.13;;
39612;SDS011;25303;48.896;13.342;2022-08-01T05:04:05;1.83;;;1.23;;
39612;SDS011;25303;48.896;13.342;2022-08-01T05:06:49;3.00;;;1.38;;
39612;SDS011;25303;48.896;13.342;2022-08-01T05:09:33;1.70;;;1.10;;
39612;SDS011;25303;48.896;13.342;2022-08-01T05:12:17;1.88;;;1.10;;
39612;SDS011;25303;48.896;13.342;2022-08-01T05:15:00;4.22;;;1.15;;
39612;SDS011;25303;48.896;13.342;2022-08-01T05:17:44;1.33;;;1.10;;
39612;SDS011;25303;48.896;13.342;2022-08-01T05:20:28;1.50;;;1.10;;
39612;SDS011;25303;48.896;13.342;2022-08-01T05:23:12;1.10;;;1.00;;
39612;SDS011;25303;48.896;13.342;2022-08-01T05:26:15;0.93;;;0.88;;
39612;SDS011;25303;48.896;13.342;2022-08-01T05:28:58;1.00;;;0.90;;
39612;SDS011;25303;48.896;13.342;2022-08-01T05:31:42;1.02;;;0.80;;
39612;SDS011;25303;48.896;13.342;2022-08-01T05:34:26;1.75;;;0.93;;
39612;SDS011;25303;48.896;13.342;2022-08-01T05:37:10;1.35;;;0.95;;
39612;SDS011;25303;48.896;13.342;2022-08-01T05:39:54;1.25;;;1.05;;
39612;SDS011;25303;48.896;13.342;2022-08-01T05:42:37;2.38;;;1.10;;
39612;SDS011;25303;48.896;13.342;2022-08-01T05:45:20;1.65;;;1.20;;
39612;SDS011;25303;48.896;13.342;2022-08-01T05:48:03;1.27;;;0.95;;
39612;SDS011;25303;48.896;13.342;2022-08-01T05:50:47;1.70;;;1.30;;
39612;SDS011;25303;48.896;13.342;2022-08-01T05:53:31;2.55;;;1.25;;
39612;SDS011;25303;48.896;13.342;2022-08-01T05:56:17;1.58;;;1.10;;
39612;SDS011;25303;48.896;13.342;2022-08-01T05:59:00;1.35;;;1.00;;
39612;SDS011;25303;48.896;13.342;2022-08-01T06:01:43;1.40;;;1.10;;
39612;SDS011;25303;48.896;13.342;2022-08-01T06:04:26;1.63;;;1.08;;
39612;SDS011;25303;48.896;13.342;2022-08-01T06:07:09;1.35;;;1.08;;
39612;SDS011;25303;48.896;13.342;2022-08-01T06:09:52;1.42;;;1.08;;
39612;SDS011;25303;48.896;13.342;2022-08-01T06:12:36;1.77;;;1.20;;
39612;SDS011;25303;48.896;13.342;2022-08-01T06:15:20;1.70;;;1.10;;
39612;SDS011;25303;48.896;13.342;2022-08-01T06:18:03;2.90;;;1.20;;
39612;SDS011;25303;48.896;13.342;2022-08-01T06:20:46;1.25;;;1.08;;
39612;SDS011;25303;48.896;13.342;2022-08-01T06:23:29;2.83;;;1.17;;
39612;SDS011;25303;48.896;13.342;2022-08-01T06:26:13;1.27;;;1.10;;
39612;SDS011;25303;48.896;13.342;2022-08-01T06:28:57;1.98;;;1.25;;
39612;SDS011;25303;48.896;13.342;2022-08-01T06:31:40;1.58;;;1.20;;
39612;SDS011;25303;48.896;13.342;2022-08-01T06:34:24;1.63;;;1.20;;
39612;SDS011;25303;48.896;13.342;2022-08-01T06:37:07;2.13;;;1.15;;
39612;SDS011;25303;48.896;13.342;2022-08-01T06:39:50;5.00;;;1.10;;
39612;SDS011;25303;48.896;13.342;2022-08-01T06:42:34;1.85;;;1.42;;
39612;SDS011;25303;48.896;13.342;2022-08-01T06:45:19;1.77;;;1.10;;
39612;SDS011;25303;48.896;13.342;2022-08-01T06:48:03;1.55;;;1.10;;
39612;SDS011;25303;48.896;13.342;2022-08-01T06:50:47;1.95;;;1.30;;
39612;SDS011;25303;48.896;13.342;2022-08-01T06:53:30;1.73;;;1.40;;
39612;SDS011;25303;48.896;13.342;2022-08-01T06:56:17;1.65;;;1.30;;
39612;SDS011;25303;48.896;13.342;2022-08-01T06:59:00;1.48;;;1.17;;
39612;SDS011;25303;48.896;13.342;2022-08-01T07:01:44;1.27;;;1.02;;
39612;SDS011;25303;48.896;13.342;2022-08-01T07:04:27;2.90;;;1.50;;
39612;SDS011;25303;48.896;13.342;2022-08-01T07:07:11;1.83;;;1.27;;
39612;SDS011;25303;48.896;13.342;2022-08-01T07:09:54;2.30;;;1.30;;
39612;SDS011;25303;48.896;13.342;2022-08-01T07:12:37;3.40;;;1.30;;
39612;SDS011;25303;48.896;13.342;2022-08-01T07:15:22;2.25;;;1.30;;
39612;SDS011;25303;48.896;13.342;2022-08-01T07:18:09;3.45;;;1.38;;
39612;SDS011;25303;48.896;13.342;2022-08-01T07:20:52;3.53;;;1.33;;
39612;SDS011;25303;48.896;13.342;2022-08-01T07:23:37;2.38;;;1.33;;
39612;SDS011;25303;48.896;13.342;2022-08-01T07:26:26;3.30;;;1.30;;
39612;SDS011;25303;48.896;13.342;2022-08-01T07:29:09;2.22;;;1.48;;
39612;SDS011;25303;48.896;13.342;2022-08-01T07:31:53;1.88;;;1.30;;
39612;SDS011;25303;48.896;13.342;2022-08-01T07:34:38;3.67;;;1.60;;
39612;SDS011;25303;48.896;13.342;2022-08-01T07:40:25;2.33;;;1.40;;
39612;SDS011;25303;48.896;13.342;2022-08-01T07:43:08;3.10;;;1.60;;
39612;SDS011;25303;48.896;13.342;2022-08-01T07:45:51;3.17;;;1.67;;
39612;SDS011;25303;48.896;13.342;2022-08-01T07:49:00;1.90;;;1.40;;
39612;SDS011;25303;48.896;13.342;2022-08-01T07:51:46;2.20;;;1.60;;
39612;SDS011;25303;48.896;13.342;2022-08-01T07:54:44;2.95;;;1.55;;
39612;SDS011;25303;48.896;13.342;2022-08-01T07:57:32;2.13;;;1.60;;
39612;SDS011;25303;48.896;13.342;2022-08-01T08:00:15;6.72;;;2.03;;
39612;SDS011;25303;48.896;13.342;2022-08-01T08:02:59;3.13;;;1.80;;
39612;SDS011;25303;48.896;13.342;2022-08-01T08:05:42;2.05;;;1.55;;
39612;SDS011;25303;48.896;13.342;2022-08-01T08:08:41;3.67;;;1.60;;
39612;SDS011;25303;48.896;13.342;2022-08-01T08:11:24;2.97;;;1.30;;
39612;SDS011;25303;48.896;13.342;2022-08-01T08:14:10;1.60;;;1.30;;
39612;SDS011;25303;48.896;13.342;2022-08-01T08:16:54;3.22;;;1.50;;
39612;SDS011;25303;48.896;13.342;2022-08-01T08:19:38;2.50;;;1.50;;
39612;SDS011;25303;48.896;13.342;2022-08-01T08:22:21;1.63;;;1.40;;
39612;SDS011;25303;48.896;13.342;2022-08-01T08:25:06;1.83;;;1.40;;
39612;SDS011;25303;48.896;13.342;2022-08-01T08:27:52;2.03;;;1.35;;
39612;SDS011;25303;48.896;13.342;2022-08-01T08:30:35;3.42;;;1.20;;
39612;SDS011;25303;48.896;13.342;2022-08-01T08:33:18;1.73;;;1.30;;
39612;SDS011;25303;48.896;13.342;2022-08-01T08:36:01;3.25;;;1.30;;
39612;SDS011;25303;48.896;13.342;2022-08-01T08:38:44;1.85;;;1.50;;
39612;SDS011;25303;48.896;13.342;2022-08-01T08:41:30;5.20;;;1.27;;
39612;SDS011;25303;48.896;13.342;2022-08-01T08:44:18;1.42;;;1.10;;
39612;SDS011;25303;48.896;13.342;2022-08-01T08:47:02;3.50;;;1.70;;
39612;SDS011;25303;48.896;13.342;2022-08-01T08:49:51;1.83;;;1.50;;
39612;SDS011;25303;48.896;13.342;2022-08-01T08:52:35;2.25;;;1.25;;
39612;SDS011;25303;48.896;13.342;2022-08-01T08:55:21;3.20;;;1.02;;
39612;SDS011;25303;48.896;13.342;2022-08-01T08:58:07;2.67;;;1.23;;
39612;SDS011;25303;48.896;13.342;2022-08-01T09:00:54;1.42;;;1.00;;
39612;SDS011;25303;48.896;13.342;2022-08-01T09:03:38;1.52;;;0.98;;
39612;SDS011;25303;48.896;13.342;2022-08-01T09:06:22;1.50;;;0.90;;
39612;SDS011;25303;48.896;13.342;2022-08-01T09:09:08;1.95;;;1.00;;
39612;SDS011;25303;48.896;13.342;2022-08-01T09:11:54;1.23;;;0.80;;
39612;SDS011;25303;48.896;13.342;2022-08-01T09:14:45;2.25;;;0.88;;
39612;SDS011;25303;48.896;13.342;2022-08-01T09:17:30;2.05;;;1.10;;
39612;SDS011;25303;48.896;13.342;2022-08-01T09:20:22;1.38;;;0.90;;
39612;SDS011;25303;48.896;13.342;2022-08-01T09:23:06;1.25;;;0.85;;
39612;SDS011;25303;48.896;13.342;2022-08-01T09:26:14;1.05;;;0.70;;
39612;SDS011;25303;48.896;13.342;2022-08-01T09:29:03;1.83;;;0.93;;
39612;SDS011;25303;48.896;13.342;2022-08-01T09:31:52;1.67;;;0.95;;
39612;SDS011;25303;48.896;13.342;2022-08-01T09:34:36;1.65;;;0.93;;
39612;SDS011;25303;48.896;13.342;2022-08-01T09:40:18;1.00;;;0.77;;
39612;SDS011;25303;48.896;13.342;2022-08-01T09:43:10;2.45;;;0.70;;
39612;SDS011;25303;48.896;13.342;2022-08-01T09:45:55;1.70;;;0.93;;
39612;SDS011;25303;48.896;13.342;2022-08-01T09:48:40;1.30;;;0.90;;
39612;SDS011;25303;48.896;13.342;2022-08-01T09:51:39;1.13;;;0.82;;
39612;SDS011;25303;48.896;13.342;2022-08-01T09:54:52;1.67;;;0.88;;
39612;SDS011;25303;48.896;13.342;2022-08-01T09:57:36;2.08;;;0.73;;
39612;SDS011;25303;48.896;13.342;2022-08-01T10:00:20;3.85;;;1.40;;
39612;SDS011;25303;48.896;13.342;2022-08-01T10:03:23;1.85;;;0.98;;
39612;SDS011;25303;48.896;13.342;2022-08-01T10:06:19;2.08;;;0.80;;
39612;SDS011;25303;48.896;13.342;2022-08-01T10:09:05;1.20;;;0.90;;
39612;SDS011;25303;48.896;13.342;2022-08-01T10:11:48;3.65;;;1.00;;
39612;SDS011;25303;48.896;13.342;2022-08-01T10:14:31;1.33;;;0.80;;
39612;SDS011;25303;48.896;13.342;2022-08-01T10:17:15;1.52;;;1.23;;
39612;SDS011;25303;48.896;13.342;2022-08-01T10:20:00;1.80;;;1.00;;
39612;SDS011;25303;48.896;13.342;2022-08-01T10:23:03;2.03;;;1.38;;
39612;SDS011;25303;48.896;13.342;2022-08-01T10:25:47;3.15;;;1.33;;
39612;SDS011;25303;48.896;13.342;2022-08-01T10:28:36;2.78;;;1.60;;
39612;SDS011;25303;48.896;13.342;2022-08-01T10:31:21;2.38;;;1.35;;
39612;SDS011;25303;48.896;13.342;2022-08-01T10:34:11;1.90;;;1.33;;
39612;SDS011;25303;48.896;13.342;2022-08-01T10:36:56;2.60;;;1.35;;
39612;SDS011;25303;48.896;13.342;2022-08-01T10:39:42;1.20;;;0.95;;
39612;SDS011;25303;48.896;13.342;2022-08-01T10:42:27;1.98;;;1.25;;
39612;SDS011;25303;48.896;13.342;2022-08-01T10:45:11;1.52;;;0.98;;
39612;SDS011;25303;48.896;13.342;2022-08-01T10:47:58;1.65;;;1.20;;
39612;SDS011;25303;48.896;13.342;2022-08-01T10:50:51;1.45;;;1.10;;
39612;SDS011;25303;48.896;13.342;2022-08-01T10:53:35;1.75;;;1.20;;
39612;SDS011;25303;48.896;13.342;2022-08-01T10:56:24;3.17;;;1.35;;
39612;SDS011;25303;48.896;13.342;2022-08-01T10:59:24;2.03;;;1.35;;
39612;SDS011;25303;48.896;13.342;2022-08-01T11:02:29;2.65;;;1.13;;
39612;SDS011;25303;48.896;13.342;2022-08-01T11:05:18;1.90;;;1.23;;
39612;SDS011;25303;48.896;13.342;2022-08-01T11:08:06;1.67;;;1.30;;
39612;SDS011;25303;48.896;13.342;2022-08-01T11:10:59;1.38;;;0.93;;
39612;SDS011;25303;48.896;13.342;2022-08-01T11:14:04;1.48;;;0.98;;
39612;SDS011;25303;48.896;13.342;2022-08-01T11:16:52;1.80;;;1.00;;
39612;SDS011;25303;48.896;13.342;2022-08-01T11:29:15;1.92;;;0.90;;
39612;SDS011;25303;48.896;13.342;2022-08-01T11:35:06;1.98;;;0.80;;
39612;SDS011;25303;48.896;13.342;2022-08-01T11:37:50;1.98;;;0.90;;
39612;SDS011;25303;48.896;13.342;2022-08-01T11:40:34;1.65;;;0.90;;
39612;SDS011;25303;48.896;13.342;2022-08-01T11:43:18;1.17;;;0.80;;
39612;SDS011;25303;48.896;13.342;2022-08-01T11:46:02;1.80;;;0.82;;
39612;SDS011;25303;48.896;13.342;2022-08-01T11:48:46;1.42;;;0.90;;
39612;SDS011;25303;48.896;13.342;2022-08-01T11:52:10;0.80;;;0.70;;
39612;SDS011;25303;48.896;13.342;2022-08-01T11:54:58;1.67;;;0.85;;
39612;SDS011;25303;48.896;13.342;2022-08-01T11:57:57;0.98;;;0.70;;
39612;SDS011;25303;48.896;13.342;2022-08-01T12:00:42;1.42;;;0.80;;
39612;SDS011;25303;48.896;13.342;2022-08-01T12:03:34;1.70;;;0.90;;
39612;SDS011;25303;48.896;13.342;2022-08-01T12:06:26;1.23;;;0.70;;
39612;SDS011;25303;48.896;13.342;2022-08-01T12:09:16;0.95;;;0.73;;
39612;SDS011;25303;48.896;13.342;2022-08-01T12:12:01;1.45;;;0.80;;
39612;SDS011;25303;48.896;13.342;2022-08-01T12:14:44;1.20;;;0.82;;
39612;SDS011;25303;48.896;13.342;2022-08-01T12:17:36;2.22;;;0.90;;
39612;SDS011;25303;48.896;13.342;2022-08-01T12:20:27;1.55;;;0.90;;
39612;SDS011;25303;48.896;13.342;2022-08-01T12:23:13;1.27;;;0.70;;
39612;SDS011;25303;48.896;13.342;2022-08-01T12:28:41;1.67;;;0.90;;
39612;SDS011;25303;48.896;13.342;2022-08-01T12:31:32;0.60;;;0.60;;
39612;SDS011;25303;48.896;13.342;2022-08-01T12:34:24;1.98;;;0.70;;
39612;SDS011;25303;48.896;13.342;2022-08-01T12:37:10;1.00;;;0.70;;
39612;SDS011;25303;48.896;13.342;2022-08-01T12:42:36;1.27;;;0.60;;
39612;SDS011;25303;48.896;13.342;2022-08-01T12:45:21;1.63;;;0.80;;
39612;SDS011;25303;48.896;13.342;2022-08-01T12:48:07;1.38;;;0.60;;
39612;SDS011;25303;48.896;13.342;2022-08-01T12:50:53;0.80;;;0.65;;
39612;SDS011;25303;48.896;13.342;2022-08-01T12:53:41;1.52;;;0.60;;
39612;SDS011;25303;48.896;13.342;2022-08-01T12:59:19;0.40;;;0.40;;
39612;SDS011;25303;48.896;13.342;2022-08-01T13:02:07;1.58;;;0.60;;
39612;SDS011;25303;48.896;13.342;2022-08-01T13:04:52;1.38;;;0.70;;
39612;SDS011;25303;48.896;13.342;2022-08-01T13:07:36;1.48;;;0.60;;
39612;SDS011;25303;48.896;13.342;2022-08-01T13:10:28;1.30;;;0.60;;
39612;SDS011;25303;48.896;13.342;2022-08-01T13:13:13;1.23;;;0.68;;
39612;SDS011;25303;48.896;13.342;2022-08-01T13:16:09;4.60;;;0.80;;
39612;SDS011;25303;48.896;13.342;2022-08-01T13:19:13;0.90;;;0.60;;
39612;SDS011;25303;48.896;13.342;2022-08-01T13:21:56;0.73;;;0.50;;
39612;SDS011;25303;48.896;13.342;2022-08-01T13:24:40;1.17;;;0.60;;
39612;SDS011;25303;48.896;13.342;2022-08-01T13:27:24;0.85;;;0.50;;
39612;SDS011;25303;48.896;13.342;2022-08-01T13:30:12;2.00;;;0.60;;
39612;SDS011;25303;48.896;13.342;2022-08-01T13:32:57;1.23;;;0.50;;
39612;SDS011;25303;48.896;13.342;2022-08-01T13:35:41;1.95;;;0.60;;
39612;SDS011;25303;48.896;13.342;2022-08-01T13:38:24;1.10;;;0.50;;
39612;SDS011;25303;48.896;13.342;2022-08-01T13:41:24;0.60;;;0.50;;
39612;SDS011;25303;48.896;13.342;2022-08-01T13:44:09;0.77;;;0.50;;
39612;SDS011;25303;48.896;13.342;2022-08-01T13:46:52;2.90;;;0.50;;
39612;SDS011;25303;48.896;13.342;2022-08-01T13:49:37;1.08;;;0.60;;
39612;SDS011;25303;48.896;13.342;2022-08-01T13:52:21;0.70;;;0.60;;
39612;SDS011;25303;48.896;13.342;2022-08-01T13:55:04;0.70;;;0.40;;
39612;SDS011;25303;48.896;13.342;2022-08-01T13:57:51;0.95;;;0.50;;
39612;SDS011;25303;48.896;13.342;2022-08-01T14:00:35;1.30;;;0.50;;
39612;SDS011;25303;48.896;13.342;2022-08-01T14:03:19;0.63;;;0.45;;
39612;SDS011;25303;48.896;13.342;2022-08-01T14:08:57;1.35;;;0.60;;
39612;SDS011;25303;48.896;13.342;2022-08-01T14:14:26;1.10;;;0.65;;
39612;SDS011;25303;48.896;13.342;2022-08-01T14:17:11;1.58;;;0.50;;
39612;SDS011;25303;48.896;13.342;2022-08-01T14:19:55;0.65;;;0.40;;
39612;SDS011;25303;48.896;13.342;2022-08-01T14:22:40;0.65;;;0.50;;
39612;SDS011;25303;48.896;13.342;2022-08-01T14:25:23;0.70;;;0.50;;
39612;SDS011;25303;48.896;13.342;2022-08-01T14:28:26;1.00;;;0.60;;
39612;SDS011;25303;48.896;13.342;2022-08-01T14:31:11;0.88;;;0.50;;
39612;SDS011;25303;48.896;13.342;2022-08-01T14:33:55;0.55;;;0.40;;
39612;SDS011;25303;48.896;13.342;2022-08-01T14:42:07;1.23;;;0.50;;
39612;SDS011;25303;48.896;13.342;2022-08-01T14:44:50;0.68;;;0.50;;
39612;SDS011;25303;48.896;13.342;2022-08-01T14:47:33;0.65;;;0.47;;
39612;SDS011;25303;48.896;13.342;2022-08-01T14:50:18;0.75;;;0.40;;
39612;SDS011;25303;48.896;13.342;2022-08-01T14:55:44;0.80;;;0.50;;
39612;SDS011;25303;48.896;13.342;2022-08-01T14:58:27;0.75;;;0.50;;
39612;SDS011;25303;48.896;13.342;2022-08-01T15:01:10;1.25;;;0.70;;
39612;SDS011;25303;48.896;13.342;2022-08-01T15:03:53;0.68;;;0.50;;
39612;SDS011;25303;48.896;13.342;2022-08-01T15:06:38;6.38;;;0.77;;
39612;SDS011;25303;48.896;13.342;2022-08-01T15:09:21;0.70;;;0.43;;
39612;SDS011;25303;48.896;13.342;2022-08-01T15:12:06;1.10;;;0.40;;
39612;SDS011;25303;48.896;13.342;2022-08-01T15:14:50;0.40;;;0.30;;
39612;SDS011;25303;48.896;13.342;2022-08-01T15:17:33;0.50;;;0.38;;
39612;SDS011;25303;48.896;13.342;2022-08-01T15:20:16;0.45;;;0.40;;
39612;SDS011;25303;48.896;13.342;2022-08-01T15:23:00;0.73;;;0.50;;
39612;SDS011;25303;48.896;13.342;2022-08-01T15:28:26;0.95;;;0.32;;
39612;SDS011;25303;48.896;13.342;2022-08-01T15:31:09;0.98;;;0.50;;
39612;SDS011;25303;48.896;13.342;2022-08-01T15:33:54;1.58;;;0.45;;
39612;SDS011;25303;48.896;13.342;2022-08-01T15:36:37;0.65;;;0.45;;
39612;SDS011;25303;48.896;13.342;2022-08-01T15:39:25;0.40;;;0.40;;
39612;SDS011;25303;48.896;13.342;2022-08-01T15:44:52;0.75;;;0.40;;
39612;SDS011;25303;48.896;13.342;2022-08-01T15:47:35;0.93;;;0.40;;
39612;SDS011;25303;48.896;13.342;2022-08-01T15:50:18;0.93;;;0.40;;
39612;SDS011;25303;48.896;13.342;2022-08-01T15:53:01;0.60;;;0.50;;
39612;SDS011;25303;48.896;13.342;2022-08-01T15:55:45;0.82;;;0.40;;
39612;SDS011;25303;48.896;13.342;2022-08-01T15:58:33;0.60;;;0.52;;
39612;SDS011;25303;48.896;13.342;2022-08-01T16:01:16;0.60;;;0.40;;
39612;SDS011;25303;48.896;13.342;2022-08-01T16:03:59;0.80;;;0.50;;
39612;SDS011;25303;48.896;13.342;2022-08-01T16:06:43;0.63;;;0.38;;
39612;SDS011;25303;48.896;13.342;2022-08-01T16:09:26;0.63;;;0.43;;
39612;SDS011;25303;48.896;13.342;2022-08-01T16:12:11;0.65;;;0.40;;
39612;SDS011;25303;48.896;13.342;2022-08-01T16:14:55;0.50;;;0.40;;
39612;SDS011;25303;48.896;13.342;2022-08-01T16:17:38;0.52;;;0.30;;
39612;SDS011;25303;48.896;13.342;2022-08-01T16:20:25;0.73;;;0.45;;
39612;SDS011;25303;48.896;13.342;2022-08-01T16:23:08;0.77;;;0.30;;
39612;SDS011;25303;48.896;13.342;2022-08-01T16:25:52;0.77;;;0.47;;
39612;SDS011;25303;48.896;13.342;2022-08-01T16:28:36;0.82;;;0.40;;
39612;SDS011;25303;48.896;13.342;2022-08-01T16:34:22;0.50;;;0.32;;
39612;SDS011;25303;48.896;13.342;2022-08-01T16:37:05;1.17;;;0.40;;
39612;SDS011;25303;48.896;13.342;2022-08-01T16:39:48;1.95;;;0.40;;
39612;SDS011;25303;48.896;13.342;2022-08-01T16:42:32;1.20;;;0.50;;
39612;SDS011;25303;48.896;13.342;2022-08-01T16:45:16;0.40;;;0.40;;
39612;SDS011;25303;48.896;13.342;2022-08-01T16:48:01;0.60;;;0.38;;
39612;SDS011;25303;48.896;13.342;2022-08-01T16:50:45;1.33;;;0.40;;
39612;SDS011;25303;48.896;13.342;2022-08-01T16:53:29;0.45;;;0.43;;
39612;SDS011;25303;48.896;13.342;2022-08-01T16:56:12;0.73;;;0.40;;
39612;SDS011;25303;48.896;13.342;2022-08-01T16:58:55;2.20;;;0.55;;
39612;SDS011;25303;48.896;13.342;2022-08-01T17:01:40;1.60;;;0.40;;
39612;SDS011;25303;48.896;13.342;2022-08-01T17:04:43;0.60;;;0.52;;
39612;SDS011;25303;48.896;13.342;2022-08-01T17:07:26;0.88;;;0.40;;
39612;SDS011;25303;48.896;13.342;2022-08-01T17:10:09;1.45;;;0.30;;
39612;SDS011;25303;48.896;13.342;2022-08-01T17:12:52;2.00;;;0.40;;
39612;SDS011;25303;48.896;13.342;2022-08-01T17:15:36;3.55;;;0.60;;
39612;SDS011;25303;48.896;13.342;2022-08-01T17:21:04;0.73;;;0.50;;
39612;SDS011;25303;48.896;13.342;2022-08-01T17:23:47;1.75;;;0.40;;
39612;SDS011;25303;48.896;13.342;2022-08-01T17:26:31;0.77;;;0.45;;
39612;SDS011;25303;48.896;13.342;2022-08-01T17:29:14;0.98;;;0.45;;